sensor_id;sensor_type;location;lat;lon;timestamp;pressure;altitude;pressure_sealevel;temperature;humidity
13836;BME280;6988;52.614;13.500;2023-09-18T00:01:52;53956.34;;;-143.77;71.99
13836;BME280;6988;52.614;13.500;2023-09-18T00:06:44;53913.25;;;-143.77;72.09
13836;BME280;6988;52.614;13.500;2023-09-18T00:11:36;53925.56;;;-143.77;71.89
13836;BME280;6988;52.614;13.500;2023-09-18T00:16:28;53888.63;;;-143.77;71.91
13836;BME280;6988;52.614;13.500;2023-09-18T00:21:21;53946.09;;;-143.77;71.99
13836;BME280;6988;52.614;13.500;2023-09-18T00:26:13;53958.41;;;-143.77;72.57
13836;BME280;6988;52.614;13.500;2023-09-18T00:31:08;53952.25;;;-143.77;72.70
13836;BME280;6988;52.614;13.500;2023-09-18T00:36:00;53933.78;;;-143.77;73.03
13836;BME280;6988;52.614;13.500;2023-09-18T00:40:54;53939.94;;;-143.77;73.08
13836;BME280;6988;52.614;13.500;2023-09-18T00:45:48;53978.91;;;-143.77;73.55
13836;BME280;6988;52.614;13.500;2023-09-18T00:50:41;53954.28;;;-143.77;73.73
13836;BME280;6988;52.614;13.500;2023-09-18T00:55:36;53993.28;;;-143.77;73.59
13836;BME280;6988;52.614;13.500;2023-09-18T01:00:30;53970.72;;;-143.77;73.79
13836;BME280;6988;52.614;13.500;2023-09-18T01:05:22;53962.50;;;-143.77;73.90
13836;BME280;6988;52.614;13.500;2023-09-18T01:10:15;53983.00;;;-143.77;74.14
13836;BME280;6988;52.614;13.500;2023-09-18T01:15:17;53970.72;;;-143.77;74.05
13836;BME280;6988;52.614;13.500;2023-09-18T01:20:11;53978.91;;;-143.77;74.04
13836;BME280;6988;52.614;13.500;2023-09-18T01:25:06;53974.81;;;-143.77;74.16
13836;BME280;6988;52.614;13.500;2023-09-18T01:29:58;53991.22;;;-143.77;74.09
13836;BME280;6988;52.614;13.500;2023-09-18T01:34:53;54022.00;;;-143.77;74.09
13836;BME280;6988;52.614;13.500;2023-09-18T01:39:47;53964.56;;;-143.77;74.34
13836;BME280;6988;52.614;13.500;2023-09-18T01:44:41;53987.13;;;-143.77;74.49
13836;BME280;6988;52.614;13.500;2023-09-18T01:49:36;53999.44;;;-143.77;74.96
13836;BME280;6988;52.614;13.500;2023-09-18T01:54:28;54007.63;;;-143.77;75.29
13836;BME280;6988;52.614;13.500;2023-09-18T01:59:21;53987.13;;;-143.77;75.42
13836;BME280;6988;52.614;13.500;2023-09-18T02:04:14;53987.13;;;-143.77;74.99
13836;BME280;6988;52.614;13.500;2023-09-18T02:09:07;53964.56;;;-143.77;75.02
13836;BME280;6988;52.614;13.500;2023-09-18T02:13:59;53985.06;;;-143.77;74.98
13836;BME280;6988;52.614;13.500;2023-09-18T02:18:55;53995.31;;;-143.77;75.08
13836;BME280;6988;52.614;13.500;2023-09-18T02:23:50;53974.81;;;-143.77;75.20
13836;BME280;6988;52.614;13.500;2023-09-18T02:28:42;53995.31;;;-143.77;75.40
13836;BME280;6988;52.614;13.500;2023-09-18T02:33:34;54015.84;;;-143.77;75.97
13836;BME280;6988;52.614;13.500;2023-09-18T02:38:27;53999.44;;;-143.77;76.50
13836;BME280;6988;52.614;13.500;2023-09-18T02:43:20;54007.63;;;-143.77;76.27
13836;BME280;6988;52.614;13.500;2023-09-18T02:48:12;54024.06;;;-143.77;76.32
13836;BME280;6988;52.614;13.500;2023-09-18T02:53:07;54013.78;;;-143.77;76.50
13836;BME280;6988;52.614;13.500;2023-09-18T02:57:59;54009.69;;;-143.77;76.94
13836;BME280;6988;52.614;13.500;2023-09-18T03:02:52;54019.94;;;-143.77;76.92
13836;BME280;6988;52.614;13.500;2023-09-18T03:07:44;54005.59;;;-143.77;76.81
13836;BME280;6988;52.614;13.500;2023-09-18T03:12:37;54028.16;;;-143.77;76.67
13836;BME280;6988;52.614;13.500;2023-09-18T03:17:30;54017.91;;;-143.77;76.70
13836;BME280;6988;52.614;13.500;2023-09-18T03:22:23;54034.31;;;-143.77;76.64
13836;BME280;6988;52.614;13.500;2023-09-18T03:27:15;54114.31;;;-143.77;76.85
13836;BME280;6988;52.614;13.500;2023-09-18T03:32:07;54024.06;;;-143.77;77.09
13836;BME280;6988;52.614;13.500;2023-09-18T03:37:03;54001.47;;;-143.77;77.26
13836;BME280;6988;52.614;13.500;2023-09-18T03:41:56;54011.75;;;-143.77;77.36
13836;BME280;6988;52.614;13.500;2023-09-18T03:46:48;54038.41;;;-143.77;77.17
13836;BME280;6988;52.614;13.500;2023-09-18T03:51:40;54026.09;;;-143.77;76.93
13836;BME280;6988;52.614;13.500;2023-09-18T03:56:32;54050.72;;;-143.77;76.76
13836;BME280;6988;52.614;13.500;2023-09-18T04:01:27;54052.78;;;-143.77;76.74
13836;BME280;6988;52.614;13.500;2023-09-18T04:06:21;54040.47;;;-143.77;77.35
13836;BME280;6988;52.614;13.500;2023-09-18T04:11:14;54046.63;;;-143.77;77.54
13836;BME280;6988;52.614;13.500;2023-09-18T04:16:06;54058.94;;;-143.77;77.46
13836;BME280;6988;52.614;13.500;2023-09-18T04:20:59;54036.38;;;-143.77;77.79
13836;BME280;6988;52.614;13.500;2023-09-18T04:25:54;54044.56;;;-143.77;77.75
13836;BME280;6988;52.614;13.500;2023-09-18T04:30:48;54069.19;;;-143.77;77.83
13836;BME280;6988;52.614;13.500;2023-09-18T04:35:41;54046.63;;;-143.77;77.35
13836;BME280;6988;52.614;13.500;2023-09-18T04:40:34;54044.56;;;-143.77;77.38
13836;BME280;6988;52.614;13.500;2023-09-18T04:45:26;54063.03;;;-143.77;77.79
13836;BME280;6988;52.614;13.500;2023-09-18T04:50:18;54079.44;;;-143.77;77.99
13836;BME280;6988;52.614;13.500;2023-09-18T04:55:10;54054.81;;;-143.77;78.57
13836;BME280;6988;52.614;13.500;2023-09-18T05:00:07;54063.03;;;-143.77;78.78
13836;BME280;6988;52.614;13.500;2023-09-18T05:05:04;54028.16;;;-143.77;78.54
13836;BME280;6988;52.614;13.500;2023-09-18T05:09:56;54044.56;;;-143.77;78.73
13836;BME280;6988;52.614;13.500;2023-09-18T05:14:47;54071.25;;;-143.77;79.18
13836;BME280;6988;52.614;13.500;2023-09-18T05:19:41;54050.72;;;-143.77;79.09
13836;BME280;6988;52.614;13.500;2023-09-18T05:24:32;54048.66;;;-143.77;79.53
13836;BME280;6988;52.614;13.500;2023-09-18T05:29:25;54089.72;;;-143.77;79.74
13836;BME280;6988;52.614;13.500;2023-09-18T05:34:17;54052.78;;;-143.77;79.23
13836;BME280;6988;52.614;13.500;2023-09-18T05:39:10;54019.94;;;-143.77;78.71
13836;BME280;6988;52.614;13.500;2023-09-18T05:44:04;54034.31;;;-143.77;77.99
13836;BME280;6988;52.614;13.500;2023-09-18T05:48:57;54022.00;;;-143.77;77.75
13836;BME280;6988;52.614;13.500;2023-09-18T05:53:51;53972.75;;;-143.77;76.58
13836;BME280;6988;52.614;13.500;2023-09-18T05:58:44;53952.25;;;-143.77;76.28
13836;BME280;6988;52.614;13.500;2023-09-18T06:03:36;53970.72;;;-143.77;75.59
13836;BME280;6988;52.614;13.500;2023-09-18T06:08:28;53946.09;;;-143.77;75.13
13836;BME280;6988;52.614;13.500;2023-09-18T06:13:20;53917.38;;;-143.77;74.37
13836;BME280;6988;52.614;13.500;2023-09-18T06:18:14;53911.22;;;-143.77;73.87
13836;BME280;6988;52.614;13.500;2023-09-18T06:23:05;53884.53;;;-143.77;72.99
13836;BME280;6988;52.614;13.500;2023-09-18T06:27:58;53900.94;;;-143.77;72.57
13836;BME280;6988;52.614;13.500;2023-09-18T06:32:51;53847.59;;;-143.77;71.94
13836;BME280;6988;52.614;13.500;2023-09-18T06:37:45;53837.34;;;-143.77;71.58
13836;BME280;6988;52.614;13.500;2023-09-18T06:42:36;53833.25;;;-143.77;70.37
13836;BME280;6988;52.614;13.500;2023-09-18T06:47:28;53812.72;;;-143.77;70.31
13836;BME280;6988;52.614;13.500;2023-09-18T06:52:20;53855.81;;;-143.77;69.96
13836;BME280;6988;52.614;13.500;2023-09-18T06:57:13;53753.25;;;-143.77;69.45
13836;BME280;6988;52.614;13.500;2023-09-18T07:02:05;53720.41;;;-143.77;68.80
13836;BME280;6988;52.614;13.500;2023-09-18T07:06:57;53708.09;;;-143.77;67.85
13836;BME280;6988;52.614;13.500;2023-09-18T07:11:49;53687.59;;;-143.77;66.92
13836;BME280;6988;52.614;13.500;2023-09-18T07:16:43;53658.88;;;-143.77;65.32
13836;BME280;6988;52.614;13.500;2023-09-18T07:21:34;53642.47;;;-143.77;64.53
13836;BME280;6988;52.614;13.500;2023-09-18T07:26:28;53636.31;;;-143.77;63.83
13836;BME280;6988;52.614;13.500;2023-09-18T07:31:20;53572.72;;;-143.77;62.80
13836;BME280;6988;52.614;13.500;2023-09-18T07:36:13;53562.44;;;-143.77;62.06
13836;BME280;6988;52.614;13.500;2023-09-18T07:41:05;53564.50;;;-143.77;61.63
13836;BME280;6988;52.614;13.500;2023-09-18T07:45:57;53535.78;;;-143.77;60.95
13836;BME280;6988;52.614;13.500;2023-09-18T07:50:50;53511.16;;;-143.77;59.98
13836;BME280;6988;52.614;13.500;2023-09-18T07:55:43;53490.66;;;-143.77;59.29
13836;BME280;6988;52.614;13.500;2023-09-18T08:00:35;53498.84;;;-143.77;58.80
13836;BME280;6988;52.614;13.500;2023-09-18T08:05:27;53455.78;;;-143.77;57.06
13836;BME280;6988;52.614;13.500;2023-09-18T08:10:20;53445.50;;;-143.77;57.69
13836;BME280;6988;52.614;13.500;2023-09-18T08:15:13;53408.59;;;-143.77;55.28
13836;BME280;6988;52.614;13.500;2023-09-18T08:20:07;53414.75;;;-143.77;56.04
13836;BME280;6988;52.614;13.500;2023-09-18T08:25:05;53379.88;;;-143.77;54.63
13836;BME280;6988;52.614;13.500;2023-09-18T08:29:58;53373.72;;;-143.77;53.99
13836;BME280;6988;52.614;13.500;2023-09-18T08:34:53;53349.09;;;-143.77;54.13
13836;BME280;6988;52.614;13.500;2023-09-18T08:39:45;53379.88;;;-143.77;53.69
13836;BME280;6988;52.614;13.500;2023-09-18T08:44:39;53322.44;;;-143.77;53.01
13836;BME280;6988;52.614;13.500;2023-09-18T08:49:33;53390.13;;;-143.77;53.47
13836;BME280;6988;52.614;13.500;2023-09-18T08:54:27;53427.06;;;-143.77;52.10
13836;BME280;6988;52.614;13.500;2023-09-18T08:59:21;53410.66;;;-143.77;52.21
13836;BME280;6988;52.614;13.500;2023-09-18T09:04:13;53338.84;;;-143.77;51.83
13836;BME280;6988;52.614;13.500;2023-09-18T09:09:05;53400.38;;;-143.77;51.45
13836;BME280;6988;52.614;13.500;2023-09-18T09:14:13;53390.13;;;-143.77;51.84
13836;BME280;6988;52.614;13.500;2023-09-18T09:19:09;53301.91;;;-143.77;51.67
13836;BME280;6988;52.614;13.500;2023-09-18T09:24:01;53371.66;;;-143.77;50.33
13836;BME280;6988;52.614;13.500;2023-09-18T09:28:53;53437.31;;;-143.77;50.85
13836;BME280;6988;52.614;13.500;2023-09-18T09:33:51;53437.31;;;-143.77;51.06
13836;BME280;6988;52.614;13.500;2023-09-18T09:38:44;53445.50;;;-143.77;50.39
13836;BME280;6988;52.614;13.500;2023-09-18T09:43:36;53427.06;;;-143.77;49.53
13836;BME280;6988;52.614;13.500;2023-09-18T09:48:29;53357.31;;;-143.77;49.40
13836;BME280;6988;52.614;13.500;2023-09-18T09:53:42;53390.13;;;-143.77;48.04
13836;BME280;6988;52.614;13.500;2023-09-18T09:58:35;53383.97;;;-143.77;47.81
13836;BME280;6988;52.614;13.500;2023-09-18T10:03:27;53400.38;;;-143.77;47.85
13836;BME280;6988;52.614;13.500;2023-09-18T10:08:23;53379.88;;;-143.77;48.03
13836;BME280;6988;52.614;13.500;2023-09-18T10:13:23;53349.09;;;-143.77;46.95
13836;BME280;6988;52.614;13.500;2023-09-18T10:18:27;53351.16;;;-143.77;45.80
13836;BME280;6988;52.614;13.500;2023-09-18T10:23:34;53402.44;;;-143.77;46.28
13836;BME280;6988;52.614;13.500;2023-09-18T10:28:32;53412.69;;;-143.77;45.71
13836;BME280;6988;52.614;13.500;2023-09-18T10:33:25;53404.50;;;-143.77;47.32
13836;BME280;6988;52.614;13.500;2023-09-18T10:38:19;53433.22;;;-143.77;46.93
13836;BME280;6988;52.614;13.500;2023-09-18T10:43:12;53447.56;;;-143.77;47.74
13836;BME280;6988;52.614;13.500;2023-09-18T10:48:09;53418.84;;;-143.77;48.15
13836;BME280;6988;52.614;13.500;2023-09-18T10:53:01;53332.69;;;-143.77;48.08
13836;BME280;6988;52.614;13.500;2023-09-18T10:57:55;53338.84;;;-143.77;46.85
13836;BME280;6988;52.614;13.500;2023-09-18T11:02:50;53388.06;;;-143.77;46.72
13836;BME280;6988;52.614;13.500;2023-09-18T11:07:44;53418.84;;;-143.77;47.06
13836;BME280;6988;52.614;13.500;2023-09-18T11:12:45;53429.09;;;-143.77;48.13
13836;BME280;6988;52.614;13.500;2023-09-18T11:17:39;53463.97;;;-143.77;48.19
13836;BME280;6988;52.614;13.500;2023-09-18T11:22:31;53449.63;;;-143.77;49.63
13836;BME280;6988;52.614;13.500;2023-09-18T11:27:26;53466.03;;;-143.77;49.70
13836;BME280;6988;52.614;13.500;2023-09-18T11:32:37;53457.81;;;-143.77;50.12
13836;BME280;6988;52.614;13.500;2023-09-18T11:37:30;53408.59;;;-143.77;48.71
13836;BME280;6988;52.614;13.500;2023-09-18T11:42:23;53408.59;;;-143.77;47.80
13836;BME280;6988;52.614;13.500;2023-09-18T11:47:22;53425.00;;;-143.77;47.56
13836;BME280;6988;52.614;13.500;2023-09-18T11:52:17;53425.00;;;-143.77;47.65
13836;BME280;6988;52.614;13.500;2023-09-18T11:57:09;53416.78;;;-143.77;47.89
13836;BME280;6988;52.614;13.500;2023-09-18T12:02:01;53449.63;;;-143.77;49.19
13836;BME280;6988;52.614;13.500;2023-09-18T12:06:57;53482.44;;;-143.77;49.11
13836;BME280;6988;52.614;13.500;2023-09-18T12:11:50;53480.38;;;-143.77;50.37
13836;BME280;6988;52.614;13.500;2023-09-18T12:16:44;53482.44;;;-143.77;51.78
13836;BME280;6988;52.614;13.500;2023-09-18T12:21:40;53441.41;;;-143.77;51.27
13836;BME280;6988;52.614;13.500;2023-09-18T12:26:33;53457.81;;;-143.77;51.92
13836;BME280;6988;52.614;13.500;2023-09-18T12:31:26;53461.94;;;-143.77;51.42
13836;BME280;6988;52.614;13.500;2023-09-18T12:36:20;53449.63;;;-143.77;50.71
13836;BME280;6988;52.614;13.500;2023-09-18T12:41:13;53416.78;;;-143.77;51.38
13836;BME280;6988;52.614;13.500;2023-09-18T12:46:07;53443.47;;;-143.77;50.46
13836;BME280;6988;52.614;13.500;2023-09-18T12:51:03;53461.94;;;-143.77;50.44
13836;BME280;6988;52.614;13.500;2023-09-18T12:56:05;53470.13;;;-143.77;49.69
13836;BME280;6988;52.614;13.500;2023-09-18T13:00:58;53468.09;;;-143.77;51.09
13836;BME280;6988;52.614;13.500;2023-09-18T13:05:52;53505.00;;;-143.77;51.00
13836;BME280;6988;52.614;13.500;2023-09-18T13:10:48;53482.44;;;-143.77;51.93
13836;BME280;6988;52.614;13.500;2023-09-18T13:15:40;53484.50;;;-143.77;51.13
13836;BME280;6988;52.614;13.500;2023-09-18T13:20:32;53494.75;;;-143.77;50.99
13836;BME280;6988;52.614;13.500;2023-09-18T13:25:29;53484.50;;;-143.77;51.47
13836;BME280;6988;52.614;13.500;2023-09-18T13:30:21;53507.06;;;-143.77;52.73
13836;BME280;6988;52.614;13.500;2023-09-18T13:35:15;53482.44;;;-143.77;51.79
13836;BME280;6988;52.614;13.500;2023-09-18T13:40:09;53525.53;;;-143.77;51.16
13836;BME280;6988;52.614;13.500;2023-09-18T13:45:04;53482.44;;;-143.77;51.63
13836;BME280;6988;52.614;13.500;2023-09-18T13:49:56;53519.38;;;-143.77;52.46
13836;BME280;6988;52.614;13.500;2023-09-18T13:54:50;53494.75;;;-143.77;53.41
13836;BME280;6988;52.614;13.500;2023-09-18T13:59:42;53519.38;;;-143.77;54.88
13836;BME280;6988;52.614;13.500;2023-09-18T14:04:36;53521.41;;;-143.77;55.97
13836;BME280;6988;52.614;13.500;2023-09-18T14:09:28;53482.44;;;-143.77;56.94
13836;BME280;6988;52.614;13.500;2023-09-18T14:14:22;53509.09;;;-143.77;57.55
13836;BME280;6988;52.614;13.500;2023-09-18T14:19:14;53531.69;;;-143.77;58.87
13836;BME280;6988;52.614;13.500;2023-09-18T14:24:07;53552.19;;;-143.77;58.24
13836;BME280;6988;52.614;13.500;2023-09-18T14:29:00;53568.59;;;-143.77;58.17
13836;BME280;6988;52.614;13.500;2023-09-18T14:33:52;53572.72;;;-143.77;58.51
13836;BME280;6988;52.614;13.500;2023-09-18T14:38:43;53576.81;;;-143.77;57.83
13836;BME280;6988;52.614;13.500;2023-09-18T14:43:38;53621.94;;;-143.77;58.00
13836;BME280;6988;52.614;13.500;2023-09-18T14:48:30;53564.50;;;-143.77;57.42
13836;BME280;6988;52.614;13.500;2023-09-18T14:53:23;53593.22;;;-143.77;57.59
13836;BME280;6988;52.614;13.500;2023-09-18T14:58:15;53564.50;;;-143.77;56.66
13836;BME280;6988;52.614;13.500;2023-09-18T15:03:09;53597.31;;;-143.77;54.61
13836;BME280;6988;52.614;13.500;2023-09-18T15:08:02;53576.81;;;-143.77;55.39
13836;BME280;6988;52.614;13.500;2023-09-18T15:12:54;53574.75;;;-143.77;55.39
13836;BME280;6988;52.614;13.500;2023-09-18T15:17:46;53580.91;;;-143.77;54.47
13836;BME280;6988;52.614;13.500;2023-09-18T15:22:39;53556.28;;;-143.77;53.92
13836;BME280;6988;52.614;13.500;2023-09-18T15:27:31;53558.34;;;-143.77;53.70
13836;BME280;6988;52.614;13.500;2023-09-18T15:32:23;53568.59;;;-143.77;53.64
13836;BME280;6988;52.614;13.500;2023-09-18T15:37:14;53589.13;;;-143.77;53.35
13836;BME280;6988;52.614;13.500;2023-09-18T15:42:08;53580.91;;;-143.77;53.94
13836;BME280;6988;52.614;13.500;2023-09-18T15:47:00;53564.50;;;-143.77;53.59
13836;BME280;6988;52.614;13.500;2023-09-18T15:51:51;53574.75;;;-143.77;53.79
13836;BME280;6988;52.614;13.500;2023-09-18T15:56:43;53550.13;;;-143.77;53.92
13836;BME280;6988;52.614;13.500;2023-09-18T16:01:37;53589.13;;;-143.77;54.63
13836;BME280;6988;52.614;13.500;2023-09-18T16:06:30;53613.72;;;-143.77;54.81
13836;BME280;6988;52.614;13.500;2023-09-18T16:11:22;53601.44;;;-143.77;55.07
13836;BME280;6988;52.614;13.500;2023-09-18T16:16:13;53607.59;;;-143.77;55.78
13836;BME280;6988;52.614;13.500;2023-09-18T16:21:07;53597.31;;;-143.77;55.62
13836;BME280;6988;52.614;13.500;2023-09-18T16:25:59;53617.84;;;-143.77;56.85
13836;BME280;6988;52.614;13.500;2023-09-18T16:30:51;53628.09;;;-143.77;58.75
13836;BME280;6988;52.614;13.500;2023-09-18T16:35:42;53634.25;;;-143.77;61.23
13836;BME280;6988;52.614;13.500;2023-09-18T16:40:38;53626.03;;;-143.77;62.67
13836;BME280;6988;52.614;13.500;2023-09-18T16:45:29;53658.88;;;-143.77;63.60
13836;BME280;6988;52.614;13.500;2023-09-18T16:50:21;53687.59;;;-143.77;64.64
13836;BME280;6988;52.614;13.500;2023-09-18T16:55:14;53693.75;;;-143.77;65.16
13836;BME280;6988;52.614;13.500;2023-09-18T17:00:09;53724.50;;;-143.77;66.31
13836;BME280;6988;52.614;13.500;2023-09-18T17:05:02;53718.34;;;-143.77;66.98
13836;BME280;6988;52.614;13.500;2023-09-18T17:09:55;53732.72;;;-143.77;67.19
13836;BME280;6988;52.614;13.500;2023-09-18T17:14:48;53740.94;;;-143.77;67.87
13836;BME280;6988;52.614;13.500;2023-09-18T17:19:41;53753.25;;;-143.77;69.03
13836;BME280;6988;52.614;13.500;2023-09-18T17:24:33;53810.69;;;-143.77;69.85
13836;BME280;6988;52.614;13.500;2023-09-18T17:29:27;53767.59;;;-143.77;70.35
13836;BME280;6988;52.614;13.500;2023-09-18T17:34:19;53745.03;;;-143.77;71.09
13836;BME280;6988;52.614;13.500;2023-09-18T17:39:12;53767.59;;;-143.77;71.35
13836;BME280;6988;52.614;13.500;2023-09-18T17:44:05;53777.84;;;-143.77;71.51
13836;BME280;6988;52.614;13.500;2023-09-18T17:48:56;53773.75;;;-143.77;71.13
13836;BME280;6988;52.614;13.500;2023-09-18T17:53:48;53765.53;;;-143.77;71.55
13836;BME280;6988;52.614;13.500;2023-09-18T17:58:42;53786.06;;;-143.77;71.36
13836;BME280;6988;52.614;13.500;2023-09-18T18:03:34;53794.28;;;-143.77;71.61
13836;BME280;6988;52.614;13.500;2023-09-18T18:08:25;53818.88;;;-143.77;71.50
13836;BME280;6988;52.614;13.500;2023-09-18T18:13:17;53786.06;;;-143.77;70.95
13836;BME280;6988;52.614;13.500;2023-09-18T18:18:10;53794.28;;;-143.77;70.99
13836;BME280;6988;52.614;13.500;2023-09-18T18:23:04;53794.28;;;-143.77;70.89
13836;BME280;6988;52.614;13.500;2023-09-18T18:27:56;53794.28;;;-143.77;70.93
13836;BME280;6988;52.614;13.500;2023-09-18T18:32:48;53777.84;;;-143.77;70.53
13836;BME280;6988;52.614;13.500;2023-09-18T18:37:41;53810.69;;;-143.77;70.60
13836;BME280;6988;52.614;13.500;2023-09-18T18:42:33;53814.78;;;-143.77;70.89
13836;BME280;6988;52.614;13.500;2023-09-18T18:47:25;53798.38;;;-143.77;70.67
13836;BME280;6988;52.614;13.500;2023-09-18T18:52:17;53781.97;;;-143.77;70.77
13836;BME280;6988;52.614;13.500;2023-09-18T18:57:10;53806.56;;;-143.77;70.42
13836;BME280;6988;52.614;13.500;2023-09-18T19:02:01;53798.38;;;-143.77;70.51
13836;BME280;6988;52.614;13.500;2023-09-18T19:06:55;53802.47;;;-143.77;70.36
13836;BME280;6988;52.614;13.500;2023-09-18T19:11:49;53790.16;;;-143.77;70.09
13836;BME280;6988;52.614;13.500;2023-09-18T19:16:42;53800.41;;;-143.77;69.71
13836;BME280;6988;52.614;13.500;2023-09-18T19:21:34;53818.88;;;-143.77;69.61
13836;BME280;6988;52.614;13.500;2023-09-18T19:26:26;53802.47;;;-143.77;69.43
13836;BME280;6988;52.614;13.500;2023-09-18T19:31:19;53810.69;;;-143.77;69.59
13836;BME280;6988;52.614;13.500;2023-09-18T19:36:12;53831.19;;;-143.77;69.89
13836;BME280;6988;52.614;13.500;2023-09-18T19:41:05;53812.72;;;-143.77;69.98
13836;BME280;6988;52.614;13.500;2023-09-18T19:45:56;53837.34;;;-143.77;69.96
13836;BME280;6988;52.614;13.500;2023-09-18T19:50:48;53839.41;;;-143.77;69.94
13836;BME280;6988;52.614;13.500;2023-09-18T19:55:42;53810.69;;;-143.77;70.44
13836;BME280;6988;52.614;13.500;2023-09-18T20:00:34;53831.19;;;-143.77;70.31
13836;BME280;6988;52.614;13.500;2023-09-18T20:05:27;53921.47;;;-143.77;70.44
13836;BME280;6988;52.614;13.500;2023-09-18T20:10:19;53933.78;;;-143.77;70.78
13836;BME280;6988;52.614;13.500;2023-09-18T20:15:13;53855.81;;;-143.77;71.04
13836;BME280;6988;52.614;13.500;2023-09-18T20:20:06;53810.69;;;-143.77;71.19
13836;BME280;6988;52.614;13.500;2023-09-18T20:24:58;53833.25;;;-143.77;71.30
13836;BME280;6988;52.614;13.500;2023-09-18T20:29:51;53833.25;;;-143.77;71.50
13836;BME280;6988;52.614;13.500;2023-09-18T20:34:44;53853.75;;;-143.77;71.62
13836;BME280;6988;52.614;13.500;2023-09-18T20:39:36;53857.88;;;-143.77;72.05
13836;BME280;6988;52.614;13.500;2023-09-18T20:44:28;53884.53;;;-143.77;72.23
13836;BME280;6988;52.614;13.500;2023-09-18T20:49:19;53880.44;;;-143.77;72.44
13836;BME280;6988;52.614;13.500;2023-09-18T20:54:12;53868.13;;;-143.77;72.47
13836;BME280;6988;52.614;13.500;2023-09-18T20:59:04;53882.50;;;-143.77;72.64
13836;BME280;6988;52.614;13.500;2023-09-18T21:03:56;53859.91;;;-143.77;72.66
13836;BME280;6988;52.614;13.500;2023-09-18T21:08:49;53847.59;;;-143.77;72.75
13836;BME280;6988;52.614;13.500;2023-09-18T21:13:44;53890.69;;;-143.77;72.95
13836;BME280;6988;52.614;13.500;2023-09-18T21:18:37;53880.44;;;-143.77;72.86
13836;BME280;6988;52.614;13.500;2023-09-18T21:23:28;53876.34;;;-143.77;73.15
13836;BME280;6988;52.614;13.500;2023-09-18T21:28:20;53884.53;;;-143.77;73.31
13836;BME280;6988;52.614;13.500;2023-09-18T21:33:14;53950.19;;;-143.77;73.74
13836;BME280;6988;52.614;13.500;2023-09-18T21:38:05;53888.63;;;-143.77;73.92
13836;BME280;6988;52.614;13.500;2023-09-18T21:42:57;53884.53;;;-143.77;74.36
13836;BME280;6988;52.614;13.500;2023-09-18T22:04:54;53913.25;;;-143.77;76.06
13836;BME280;6988;52.614;13.500;2023-09-18T22:09:46;53909.16;;;-143.77;76.25
13836;BME280;6988;52.614;13.500;2023-09-18T22:14:42;53937.88;;;-143.77;76.47
13836;BME280;6988;52.614;13.500;2023-09-18T22:19:34;53952.25;;;-143.77;76.39
13836;BME280;6988;52.614;13.500;2023-09-18T22:24:27;53923.53;;;-143.77;76.61
13836;BME280;6988;52.614;13.500;2023-09-18T22:29:20;53933.78;;;-143.77;76.70
13836;BME280;6988;52.614;13.500;2023-09-18T22:34:11;53997.38;;;-143.77;76.28
13836;BME280;6988;52.614;13.500;2023-09-18T22:55:49;53917.38;;;-143.77;76.56
13836;BME280;6988;52.614;13.500;2023-09-18T23:00:41;53935.84;;;-143.77;76.47
13836;BME280;6988;52.614;13.500;2023-09-18T23:05:34;53937.88;;;-143.77;76.62
13836;BME280;6988;52.614;13.500;2023-09-18T23:10:27;53929.69;;;-143.77;76.49
13836;BME280;6988;52.614;13.500;2023-09-18T23:15:20;53929.69;;;-143.77;76.76
13836;BME280;6988;52.614;13.500;2023-09-18T23:20:14;53966.59;;;-143.77;76.89
13836;BME280;6988;52.614;13.500;2023-09-18T23:25:08;53952.25;;;-143.77;76.87
13836;BME280;6988;52.614;13.500;2023-09-18T23:30:02;53978.91;;;-143.77;76.82
13836;BME280;6988;52.614;13.500;2023-09-18T23:35:01;53966.59;;;-143.77;76.94
13836;BME280;6988;52.614;13.500;2023-09-18T23:40:03;53958.41;;;-143.77;76.83
13836;BME280;6988;52.614;13.500;2023-09-18T23:44:59;53956.34;;;-143.77;76.93
13836;BME280;6988;52.614;13.500;2023-09-18T23:49:57;53970.72;;;-143.77;76.73
13836;BME280;6988;52.614;13.500;2023-09-18T23:54:52;53937.88;;;-143.77;76.51
13836;BME280;6988;52.614;13.500;2023-09-18T23:59:44;53991.22;;;-143.77;76.60
